Time;durP1;ratioP1;P1;durP2;ratioP2;P2;SDS_P1;SDS_P2;PMS_P1;PMS_P2;Temp;Humidity;BMP_temperature;BMP_pressure;BME280_temperature;BME280_humidity;BME280_pressure;Samples;Min_cycle;Max_cycle;Signal;HPM_P1;HPM_P2
2023/06/18 00:01:01;;;;;;;11.07;6.47;;;18.70;91.00;;;;;;5152853;27;20497;-67
2023/06/18 00:03:26;;;;;;;8.23;7.07;;;18.70;91.20;;;;;;5152620;27;20210;-67
2023/06/18 00:05:53;;;;;;;8.40;6.97;;;18.70;90.90;;;;;;5152604;27;20575;-67
2023/06/18 00:08:19;;;;;;;9.60;6.63;;;18.80;91.30;;;;;;5152235;27;20214;-67
2023/06/18 00:10:45;;;;;;;8.90;7.03;;;18.70;91.70;;;;;;5133570;27;20409;-67
2023/06/18 00:13:11;;;;;;;7.47;6.70;;;18.60;91.60;;;;;;5152730;27;20504;-67
2023/06/18 00:15:36;;;;;;;7.97;5.70;;;18.50;91.40;;;;;;5152238;27;20664;-68
2023/06/18 00:18:02;;;;;;;8.50;6.60;;;18.50;90.80;;;;;;5152132;27;20260;-67
2023/06/18 00:20:28;;;;;;;8.73;7.20;;;18.60;90.90;;;;;;5152537;27;20184;-67
2023/06/18 00:22:53;;;;;;;8.47;6.83;;;18.50;92.50;;;;;;5152152;27;20620;-67
2023/06/18 00:25:19;;;;;;;19.67;6.93;;;18.30;93.40;;;;;;5152107;27;20177;-67
2023/06/18 00:27:46;;;;;;;13.10;7.10;;;18.20;94.00;;;;;;5152044;27;20203;-67
2023/06/18 00:30:13;;;;;;;7.63;5.70;;;18.10;94.70;;;;;;5152584;27;20848;-67
2023/06/18 00:32:41;;;;;;;12.90;6.77;;;17.90;95.50;;;;;;5152863;27;20949;-68
2023/06/18 00:35:06;;;;;;;9.70;6.80;;;17.80;95.80;;;;;;5134146;27;20504;-67
2023/06/18 00:37:32;;;;;;;9.03;6.47;;;17.60;96.30;;;;;;5152606;27;20462;-67
2023/06/18 00:39:58;;;;;;;10.73;6.87;;;17.60;97.60;;;;;;5152328;27;20279;-67
2023/06/18 00:42:24;;;;;;;9.50;6.87;;;17.50;97.30;;;;;;5133427;27;20463;-67
2023/06/18 00:44:49;;;;;;;11.57;7.63;;;17.40;97.80;;;;;;5151809;27;20554;-67
2023/06/18 00:47:17;;;;;;;8.80;6.20;;;17.40;96.80;;;;;;5151805;27;20179;-67
2023/06/18 00:49:43;;;;;;;12.10;6.53;;;17.20;98.00;;;;;;5151461;27;20324;-67
2023/06/18 00:52:13;;;;;;;10.10;7.17;;;17.10;99.20;;;;;;5151862;27;20873;-67
2023/06/18 00:54:41;;;;;;;8.63;7.20;;;17.00;98.90;;;;;;5151404;27;20500;-67
2023/06/18 00:57:08;;;;;;;10.03;8.00;;;16.90;99.90;;;;;;5132838;27;20530;-67
2023/06/18 00:59:37;;;;;;;8.83;7.80;;;16.80;99.90;;;;;;5151366;27;20536;-67
2023/06/18 01:02:03;;;;;;;8.50;6.33;;;16.90;99.90;;;;;;5151363;27;20801;-67
2023/06/18 01:04:33;;;;;;;8.83;6.77;;;16.80;99.90;;;;;;5132369;27;20424;-67
2023/06/18 01:07:01;;;;;;;8.33;6.13;;;16.80;99.90;;;;;;5151268;27;20432;-67
2023/06/18 01:09:28;;;;;;;8.63;6.87;;;16.70;99.90;;;;;;5132244;27;20550;-67
2023/06/18 01:11:54;;;;;;;9.47;6.87;;;16.60;99.90;;;;;;5151092;27;20421;-67
2023/06/18 01:14:22;;;;;;;9.47;7.10;;;16.60;99.90;;;;;;5151093;27;20413;-67
2023/06/18 01:16:49;;;;;;;10.90;7.07;;;16.60;99.90;;;;;;5132067;27;20433;-67
2023/06/18 01:19:43;;;;;;;9.03;6.30;;;16.50;99.90;;;;;;5151061;27;20447;-66
2023/06/18 01:22:18;;;;;;;8.87;6.83;;;16.50;99.90;;;;;;5131850;27;20516;-67
2023/06/18 01:24:50;;;;;;;8.37;6.70;;;16.40;99.90;;;;;;5151108;27;20913;-66
2023/06/18 01:27:21;;;;;;;8.70;7.23;;;16.40;99.90;;;;;;5150868;27;20433;-66
2023/06/18 01:29:48;;;;;;;11.10;7.60;;;16.30;99.90;;;;;;5150863;27;20477;-67
2023/06/18 01:32:14;;;;;;;8.90;7.50;;;16.30;99.90;;;;;;5150726;27;20447;-66
2023/06/18 01:34:40;;;;;;;9.37;7.70;;;16.20;99.90;;;;;;5150511;27;20443;-66
2023/06/18 01:37:33;;;;;;;10.30;7.43;;;16.20;99.90;;;;;;5132068;27;20191;-66
2023/06/18 01:40:15;;;;;;;9.30;7.70;;;16.10;99.90;;;;;;5150465;27;20428;-67
2023/06/18 01:42:50;;;;;;;12.10;7.53;;;16.10;99.90;;;;;;5150420;27;20497;-67
2023/06/18 01:45:22;;;;;;;9.50;7.70;;;16.10;99.90;;;;;;5150450;27;20395;-67
2023/06/18 01:47:49;;;;;;;12.13;7.87;;;16.00;99.90;;;;;;5150550;27;20405;-67
2023/06/18 01:50:17;;;;;;;12.03;7.97;;;16.10;99.90;;;;;;5150354;27;20412;-67
2023/06/18 01:52:44;;;;;;;11.60;8.00;;;16.00;99.90;;;;;;5150411;27;20408;-67
2023/06/18 01:55:12;;;;;;;10.70;8.77;;;16.00;99.90;;;;;;5150460;27;20451;-68
2023/06/18 01:57:38;;;;;;;14.20;8.00;;;16.00;99.90;;;;;;5150343;27;20425;-67
2023/06/18 02:00:04;;;;;;;8.43;7.17;;;16.00;99.90;;;;;;5131474;27;20447;-68
2023/06/18 02:02:30;;;;;;;12.73;8.40;;;15.90;99.90;;;;;;5150207;27;20471;-67
2023/06/18 02:04:56;;;;;;;8.50;7.00;;;15.90;99.90;;;;;;5150507;27;20417;-67
2023/06/18 02:07:22;;;;;;;11.40;8.13;;;15.80;99.90;;;;;;5149595;27;20244;-67
2023/06/18 02:09:47;;;;;;;16.40;9.03;;;15.70;99.90;;;;;;5149986;27;20878;-67
2023/06/18 02:12:13;;;;;;;13.63;8.33;;;15.70;99.90;;;;;;5150052;27;20175;-67
2023/06/18 02:14:39;;;;;;;18.03;8.30;;;15.60;99.90;;;;;;5131569;27;20183;-67
2023/06/18 02:17:05;;;;;;;12.97;8.93;;;15.60;99.90;;;;;;5150017;27;20614;-67
2023/06/18 02:19:31;;;;;;;11.70;7.63;;;15.60;99.90;;;;;;5149916;27;20235;-67
2023/06/18 02:21:57;;;;;;;11.83;8.70;;;15.50;99.90;;;;;;5150172;27;20440;-67
2023/06/18 02:24:23;;;;;;;14.30;8.97;;;15.30;99.90;;;;;;5131211;27;20608;-66
2023/06/18 02:26:48;;;;;;;18.27;9.67;;;15.40;99.90;;;;;;5149677;27;20446;-66
2023/06/18 02:29:14;;;;;;;12.30;9.00;;;15.30;99.90;;;;;;5131013;27;20225;-66
2023/06/18 02:31:40;;;;;;;11.83;8.60;;;15.30;99.90;;;;;;5131264;27;20178;-66
2023/06/18 02:34:05;;;;;;;12.30;9.00;;;15.20;99.90;;;;;;5149885;27;20243;-66
2023/06/18 02:36:32;;;;;;;11.43;7.60;;;15.20;99.90;;;;;;5149890;27;20223;-66
2023/06/18 02:38:58;;;;;;;15.83;8.07;;;15.00;99.90;;;;;;5149749;27;20225;-66
2023/06/18 02:41:23;;;;;;;9.63;7.67;;;15.00;99.90;;;;;;5149710;27;20451;-67
2023/06/18 02:43:49;;;;;;;9.20;7.67;;;15.00;99.90;;;;;;5149717;27;20264;-66
2023/06/18 02:46:16;;;;;;;13.70;8.67;;;14.90;99.90;;;;;;5149734;27;20567;-66
2023/06/18 02:48:41;;;;;;;8.17;7.27;;;14.90;99.90;;;;;;5149744;27;20257;-66
2023/06/18 02:51:07;;;;;;;10.73;7.13;;;14.90;99.90;;;;;;5150011;27;20421;-67
2023/06/18 02:53:33;;;;;;;11.73;7.00;;;15.00;99.90;;;;;;5131566;27;20242;-67
2023/06/18 02:55:58;;;;;;;8.87;6.80;;;14.90;99.90;;;;;;5131757;27;20277;-67
2023/06/18 02:58:27;;;;;;;8.80;7.07;;;15.00;99.90;;;;;;5150368;27;20614;-66
2023/06/18 03:00:57;;;;;;;10.50;7.67;;;14.90;99.90;;;;;;5150568;27;20189;-67
2023/06/18 03:03:23;;;;;;;12.07;8.03;;;14.90;99.90;;;;;;5132694;27;20410;-67
2023/06/18 03:05:49;;;;;;;9.83;7.73;;;14.90;99.90;;;;;;5150860;27;20415;-67
2023/06/18 03:08:15;;;;;;;11.13;7.60;;;14.90;99.90;;;;;;5150103;27;20209;-67
2023/06/18 03:10:42;;;;;;;9.50;7.80;;;14.90;99.90;;;;;;5149994;27;20771;-67
2023/06/18 03:13:08;;;;;;;11.00;8.20;;;14.90;99.90;;;;;;5149669;27;20410;-67
2023/06/18 03:15:33;;;;;;;13.63;7.43;;;14.90;99.90;;;;;;5149669;27;20411;-66
2023/06/18 03:17:59;;;;;;;10.70;7.13;;;14.80;99.90;;;;;;5149581;27;20178;-66
2023/06/18 03:20:25;;;;;;;7.63;6.80;;;14.80;99.90;;;;;;5153204;27;20215;-66
2023/06/18 03:22:50;;;;;;;9.90;7.17;;;14.80;99.90;;;;;;5134895;27;20187;-67
2023/06/18 03:25:17;;;;;;;12.33;8.00;;;14.80;99.90;;;;;;5153373;27;20183;-67
2023/06/18 03:27:43;;;;;;;9.30;7.30;;;14.90;99.90;;;;;;5153440;27;20225;-67
2023/06/18 03:30:09;;;;;;;22.90;7.90;;;14.90;99.90;;;;;;5153682;27;20495;-67
2023/06/18 03:32:35;;;;;;;11.17;7.40;;;14.90;99.90;;;;;;5153288;27;20548;-67
2023/06/18 03:35:01;;;;;;;8.70;6.90;;;15.00;99.90;;;;;;5134714;27;20418;-67
2023/06/18 03:37:27;;;;;;;11.93;7.67;;;15.00;99.90;;;;;;5153237;27;20458;-67
2023/06/18 03:39:53;;;;;;;8.57;6.63;;;15.00;99.90;;;;;;5153130;27;20902;-67
2023/06/18 03:42:18;;;;;;;9.43;7.20;;;15.00;99.90;;;;;;5153077;27;20192;-66
2023/06/18 03:44:44;;;;;;;10.47;7.20;;;15.00;99.90;;;;;;5153354;27;20212;-67
2023/06/18 03:47:10;;;;;;;10.40;8.07;;;15.10;99.90;;;;;;5153082;27;20189;-67
2023/06/18 03:49:36;;;;;;;7.83;6.40;;;15.20;99.90;;;;;;5152875;27;20470;-67
2023/06/18 03:52:02;;;;;;;8.77;6.87;;;15.20;99.90;;;;;;5134260;27;20275;-67
2023/06/18 03:54:27;;;;;;;7.77;6.83;;;15.30;99.90;;;;;;5153035;27;20208;-67
2023/06/18 03:56:53;;;;;;;10.67;8.17;;;15.30;99.90;;;;;;5134172;27;20181;-68
2023/06/18 03:59:18;;;;;;;13.93;7.70;;;15.40;99.90;;;;;;5152949;27;20269;-67
2023/06/18 04:01:44;;;;;;;8.20;6.93;;;15.40;99.90;;;;;;5152953;27;20216;-65
2023/06/18 04:04:09;;;;;;;11.30;7.60;;;15.40;99.90;;;;;;5134611;27;20185;-65
2023/06/18 04:06:35;;;;;;;7.77;6.87;;;15.40;99.90;;;;;;5153210;27;20189;-66
2023/06/18 04:09:01;;;;;;;11.03;7.97;;;15.50;99.90;;;;;;5152683;27;20297;-67
2023/06/18 04:11:27;;;;;;;10.70;7.90;;;15.60;99.90;;;;;;5152449;27;20183;-68
2023/06/18 04:13:52;;;;;;;10.20;8.10;;;15.60;99.90;;;;;;5134063;27;20182;-67
2023/06/18 04:16:18;;;;;;;12.10;8.73;;;15.70;99.90;;;;;;5134360;27;20475;-67
2023/06/18 04:18:44;;;;;;;11.93;8.10;;;15.60;99.90;;;;;;5153249;27;20205;-66
2023/06/18 04:21:09;;;;;;;16.90;8.20;;;15.80;99.90;;;;;;5153065;27;20224;-67
2023/06/18 04:23:35;;;;;;;14.93;8.70;;;15.80;99.90;;;;;;5152860;27;20193;-66
2023/06/18 04:26:00;;;;;;;10.00;8.10;;;15.80;99.90;;;;;;5152230;27;20221;-66
2023/06/18 04:28:27;;;;;;;10.37;7.70;;;15.90;99.90;;;;;;5152418;27;20266;-66
2023/06/18 04:30:53;;;;;;;10.60;8.40;;;15.90;99.90;;;;;;5133830;27;20467;-67
2023/06/18 04:33:18;;;;;;;13.23;8.20;;;16.00;99.90;;;;;;5151998;27;20184;-68
2023/06/18 04:35:45;;;;;;;19.53;8.17;;;16.10;99.90;;;;;;5152158;27;20229;-66
2023/06/18 04:38:11;;;;;;;9.10;7.70;;;16.10;99.90;;;;;;5133470;27;20205;-66
2023/06/18 04:40:36;;;;;;;9.80;7.97;;;16.20;99.90;;;;;;5133404;27;20427;-66
2023/06/18 04:43:02;;;;;;;11.50;7.50;;;16.10;99.90;;;;;;5151839;27;20188;-66
2023/06/18 04:45:27;;;;;;;11.07;8.33;;;16.20;99.90;;;;;;5151906;27;20226;-68
2023/06/18 04:47:54;;;;;;;9.70;8.10;;;16.30;99.90;;;;;;5132656;27;20217;-67
2023/06/18 04:50:21;;;;;;;11.63;7.70;;;16.40;99.90;;;;;;5151681;27;20205;-67
2023/06/18 04:52:47;;;;;;;10.33;8.57;;;16.40;99.90;;;;;;5151613;27;20449;-67
2023/06/18 04:55:12;;;;;;;10.20;8.30;;;16.40;99.90;;;;;;5132925;27;20428;-68
2023/06/18 04:57:39;;;;;;;12.50;8.33;;;16.50;99.90;;;;;;5151618;27;20192;-68
2023/06/18 05:00:05;;;;;;;11.00;7.93;;;16.50;99.90;;;;;;5151661;27;20226;-67
2023/06/18 05:02:31;;;;;;;9.47;7.73;;;16.50;99.90;;;;;;5132799;27;20422;-67
2023/06/18 05:04:56;;;;;;;10.90;8.77;;;16.60;99.90;;;;;;5151535;27;20452;-67
2023/06/18 05:07:22;;;;;;;10.63;8.13;;;16.60;99.90;;;;;;5151490;27;20709;-66
2023/06/18 05:09:47;;;;;;;10.57;8.10;;;16.60;99.90;;;;;;5151023;27;20754;-66
2023/06/18 05:12:14;;;;;;;9.67;8.30;;;16.70;99.90;;;;;;5151143;27;20198;-66
2023/06/18 05:14:40;;;;;;;9.47;8.10;;;16.70;99.90;;;;;;5132335;27;20552;-66
2023/06/18 05:17:06;;;;;;;10.87;7.90;;;16.60;99.90;;;;;;5132458;27;20417;-67
2023/06/18 05:19:31;;;;;;;8.47;7.57;;;16.60;99.90;;;;;;5151025;27;20624;-68
2023/06/18 05:21:58;;;;;;;9.83;8.10;;;16.70;99.90;;;;;;5151184;27;21281;-67
2023/06/18 05:24:23;;;;;;;8.87;6.50;;;16.70;99.90;;;;;;5150824;27;20211;-66
2023/06/18 05:26:49;;;;;;;9.20;7.63;;;16.80;99.90;;;;;;5150911;27;20949;-67
2023/06/18 05:29:16;;;;;;;9.30;7.60;;;16.80;99.90;;;;;;5151001;27;20226;-66
2023/06/18 05:31:41;;;;;;;13.40;8.80;;;16.90;99.90;;;;;;5150854;27;20540;-66
2023/06/18 05:34:07;;;;;;;11.40;8.07;;;17.00;99.90;;;;;;5150708;27;20902;-67
2023/06/18 05:36:33;;;;;;;10.20;8.50;;;17.10;99.90;;;;;;5150767;27;20187;-68
2023/06/18 05:39:02;;;;;;;11.77;7.80;;;17.10;99.90;;;;;;5150537;27;20205;-67
2023/06/18 05:41:28;;;;;;;10.10;7.87;;;17.20;99.90;;;;;;5149766;27;20218;-68
2023/06/18 05:43:53;;;;;;;13.10;7.77;;;17.30;99.90;;;;;;5150640;27;20779;-67
2023/06/18 05:46:19;;;;;;;17.93;8.67;;;17.50;99.90;;;;;;5131771;27;20505;-67
2023/06/18 05:48:45;;;;;;;12.93;7.50;;;17.50;99.90;;;;;;5150535;27;20243;-67
2023/06/18 05:51:11;;;;;;;9.50;7.77;;;17.70;99.90;;;;;;5150609;27;20858;-66
2023/06/18 05:53:36;;;;;;;9.83;8.13;;;17.80;99.90;;;;;;5150416;27;20206;-67
2023/06/18 05:56:02;;;;;;;15.33;8.07;;;18.00;99.90;;;;;;5150344;27;20244;-67
2023/06/18 05:58:28;;;;;;;10.87;7.97;;;18.00;99.90;;;;;;5150589;27;20213;-67
2023/06/18 06:00:53;;;;;;;11.83;8.17;;;18.10;99.90;;;;;;5151504;27;20194;-67
2023/06/18 06:03:19;;;;;;;13.00;8.07;;;18.20;99.90;;;;;;5151079;27;20730;-66
2023/06/18 06:05:44;;;;;;;12.40;8.63;;;18.30;99.90;;;;;;5151053;27;20265;-66
2023/06/18 06:08:11;;;;;;;10.10;7.80;;;18.40;99.90;;;;;;5150853;27;20676;-67
2023/06/18 06:10:36;;;;;;;9.50;7.60;;;18.50;99.90;;;;;;5150401;27;20177;-66
2023/06/18 06:13:03;;;;;;;9.50;7.90;;;18.60;99.90;;;;;;5150763;27;20917;-66
2023/06/18 06:15:29;;;;;;;9.97;7.67;;;18.70;99.90;;;;;;5132378;27;20186;-67
2023/06/18 06:17:54;;;;;;;8.73;7.07;;;18.80;99.90;;;;;;5150978;27;20422;-67
2023/06/18 06:20:20;;;;;;;8.87;7.33;;;18.90;99.90;;;;;;5151014;27;20204;-66
2023/06/18 06:22:49;;;;;;;8.80;6.53;;;19.00;99.90;;;;;;5151095;27;20181;-66
2023/06/18 06:25:15;;;;;;;8.50;7.60;;;19.10;99.90;;;;;;5150978;27;20720;-66
2023/06/18 06:27:43;;;;;;;11.13;7.57;;;19.20;99.90;;;;;;5150962;27;20531;-66
2023/06/18 06:30:09;;;;;;;11.20;8.20;;;19.30;99.90;;;;;;5132350;27;21008;-67
2023/06/18 06:32:35;;;;;;;9.07;7.50;;;19.40;99.90;;;;;;5151153;27;20410;-67
2023/06/18 06:35:02;;;;;;;8.27;7.47;;;19.50;99.90;;;;;;5151231;27;20442;-67
2023/06/18 06:37:29;;;;;;;9.80;7.77;;;19.60;99.90;;;;;;5150990;27;21113;-67
2023/06/18 06:39:55;;;;;;;9.57;7.87;;;19.80;99.90;;;;;;5150837;27;20514;-67
2023/06/18 06:42:22;;;;;;;10.63;7.57;;;19.90;99.90;;;;;;5151205;27;20473;-66
2023/06/18 06:44:47;;;;;;;8.07;7.27;;;20.00;99.90;;;;;;5132373;27;20421;-67
2023/06/18 06:47:13;;;;;;;10.40;8.60;;;20.10;99.90;;;;;;5150967;27;20443;-67
2023/06/18 06:49:39;;;;;;;7.83;7.10;;;20.10;99.90;;;;;;5150539;27;20225;-67
2023/06/18 06:52:04;;;;;;;15.37;7.77;;;20.20;99.90;;;;;;5150686;27;20225;-66
2023/06/18 06:54:30;;;;;;;12.70;7.80;;;20.30;99.90;;;;;;5154354;27;20195;-67
2023/06/18 06:56:56;;;;;;;8.83;7.30;;;20.40;99.90;;;;;;5154695;27;20188;-67
2023/06/18 06:59:21;;;;;;;15.40;8.30;;;20.50;99.90;;;;;;5154419;27;20204;-66
2023/06/18 07:01:47;;;;;;;11.93;8.20;;;20.70;99.90;;;;;;5135513;27;20190;-66
2023/06/18 07:04:13;;;;;;;11.13;8.13;;;20.70;99.90;;;;;;5154147;27;20185;-66
2023/06/18 07:06:39;;;;;;;12.57;7.73;;;20.90;99.90;;;;;;5154181;27;20233;-66
2023/06/18 07:09:08;;;;;;;8.77;7.87;;;21.10;99.90;;;;;;5153496;27;20993;-66
2023/06/18 07:11:36;;;;;;;13.70;8.27;;;21.20;99.90;;;;;;5154222;27;20224;-66
2023/06/18 07:14:02;;;;;;;9.07;7.30;;;21.30;99.90;;;;;;5153950;27;20421;-66
2023/06/18 07:16:28;;;;;;;9.30;8.00;;;21.40;99.90;;;;;;5153716;27;20442;-66
2023/06/18 07:18:53;;;;;;;11.17;8.20;;;21.60;99.90;;;;;;5153642;27;20476;-66
2023/06/18 07:21:19;;;;;;;8.17;7.37;;;21.60;99.90;;;;;;5153729;27;20275;-66
2023/06/18 07:23:45;;;;;;;10.23;8.27;;;21.80;99.90;;;;;;5153756;27;20188;-66
2023/06/18 07:26:10;;;;;;;12.90;7.67;;;21.80;99.90;;;;;;5153646;27;20294;-66
2023/06/18 07:28:36;;;;;;;8.23;7.43;;;21.90;99.90;;;;;;5153843;27;20878;-66
2023/06/18 07:31:02;;;;;;;16.37;8.00;;;22.00;99.90;;;;;;5153877;27;20177;-65
2023/06/18 07:33:27;;;;;;;9.53;7.60;;;22.10;99.90;;;;;;5135419;27;20190;-67
2023/06/18 07:35:53;;;;;;;8.53;7.10;;;22.20;99.90;;;;;;5135319;27;20418;-67
2023/06/18 07:38:19;;;;;;;13.20;8.30;;;22.20;99.90;;;;;;5135310;27;20585;-67
2023/06/18 07:40:44;;;;;;;15.13;7.47;;;22.30;99.90;;;;;;5135701;27;20208;-67
2023/06/18 07:43:11;;;;;;;11.30;7.93;;;22.40;99.90;;;;;;5154161;27;20204;-66
2023/06/18 07:45:36;;;;;;;10.17;7.30;;;22.50;99.90;;;;;;5154204;27;20725;-66
2023/06/18 07:48:02;;;;;;;17.33;8.40;;;22.70;99.90;;;;;;5153807;27;20421;-67
2023/06/18 07:50:28;;;;;;;15.00;7.47;;;22.80;99.90;;;;;;5153872;27;20186;-67
2023/06/18 07:52:53;;;;;;;10.00;7.90;;;22.90;99.90;;;;;;5153774;27;20235;-67
2023/06/18 07:55:19;;;;;;;11.33;7.40;;;22.90;99.90;;;;;;5135270;27;20186;-67
2023/06/18 07:57:45;;;;;;;14.20;8.33;;;23.20;99.90;;;;;;5153583;27;20225;-67
2023/06/18 08:00:11;;;;;;;13.43;8.10;;;23.20;99.90;;;;;;5153430;27;20675;-67
2023/06/18 08:02:36;;;;;;;8.73;7.80;;;23.30;99.90;;;;;;5133590;27;20190;-67
2023/06/18 08:05:02;;;;;;;8.50;6.90;;;23.40;99.90;;;;;;5150971;27;20433;-67
2023/06/18 08:07:28;;;;;;;8.47;7.67;;;23.50;99.90;;;;;;5152024;27;20254;-67
2023/06/18 08:09:53;;;;;;;10.30;7.40;;;23.60;99.90;;;;;;5151799;27;20475;-67
2023/06/18 08:12:19;;;;;;;14.40;8.10;;;23.80;99.90;;;;;;5152097;27;20186;-67
2023/06/18 08:14:48;;;;;;;8.53;6.73;;;23.90;99.90;;;;;;5152073;27;20260;-67
2023/06/18 08:17:16;;;;;;;12.60;8.50;;;24.00;99.90;;;;;;5152148;27;20278;-67
2023/06/18 08:19:45;;;;;;;14.03;7.53;;;24.10;99.90;;;;;;5151716;27;20472;-67
2023/06/18 08:22:11;;;;;;;12.87;7.87;;;24.20;99.90;;;;;;5151844;27;20453;-67
2023/06/18 08:24:37;;;;;;;8.00;7.27;;;24.40;99.90;;;;;;5151808;27;20420;-67
2023/06/18 08:27:03;;;;;;;13.17;7.97;;;24.50;99.70;;;;;;5132940;27;20443;-67
2023/06/18 08:29:28;;;;;;;10.73;7.77;;;24.60;99.00;;;;;;5151548;27;20767;-66
2023/06/18 08:31:54;;;;;;;7.27;6.57;;;24.80;99.90;;;;;;5151914;27;20417;-66
2023/06/18 08:34:20;;;;;;;8.00;7.20;;;24.90;99.90;;;;;;5151569;27;20190;-66
2023/06/18 08:36:47;;;;;;;8.50;7.10;;;25.10;98.90;;;;;;5132975;27;20179;-66
2023/06/18 08:39:13;;;;;;;9.80;7.00;;;25.20;99.10;;;;;;5151440;27;20710;-66
2023/06/18 08:41:42;;;;;;;7.20;6.50;;;25.50;98.80;;;;;;5151283;27;20503;-67
2023/06/18 08:44:08;;;;;;;7.97;7.13;;;25.50;99.00;;;;;;5150999;27;20422;-67
2023/06/18 08:46:35;;;;;;;9.77;7.17;;;25.80;98.90;;;;;;5150850;27;20428;-66
2023/06/18 08:49:02;;;;;;;11.77;8.13;;;26.00;98.50;;;;;;5150638;27;20222;-66
2023/06/18 08:51:28;;;;;;;19.10;7.87;;;26.10;97.20;;;;;;5150814;27;20645;-66
2023/06/18 08:54:03;;;;;;;8.17;7.20;;;26.30;98.20;;;;;;5150952;27;20429;-66
2023/06/18 08:56:30;;;;;;;12.50;7.40;;;26.50;96.60;;;;;;5150782;27;20405;-66
2023/06/18 08:58:59;;;;;;;9.10;6.80;;;26.60;96.80;;;;;;5131683;27;20445;-66
2023/06/18 09:01:26;;;;;;;10.07;7.07;;;26.80;95.60;;;;;;5150466;27;20463;-67
2023/06/18 09:03:53;;;;;;;8.30;7.50;;;27.10;95.80;;;;;;5150323;27;20826;-67
2023/06/18 09:06:19;;;;;;;7.80;6.80;;;27.40;96.10;;;;;;5150290;27;20420;-67
2023/06/18 09:08:46;;;;;;;12.33;7.73;;;27.60;96.40;;;;;;5149902;27;20473;-67
2023/06/18 09:11:12;;;;;;;12.90;7.50;;;27.90;95.90;;;;;;5150233;27;20428;-66
2023/06/18 09:13:44;;;;;;;7.67;6.47;;;28.20;95.50;;;;;;5150140;27;20865;-67
2023/06/18 09:16:10;;;;;;;13.37;6.53;;;28.40;95.00;;;;;;5149840;27;20284;-69
2023/06/18 09:18:36;;;;;;;8.27;7.10;;;28.50;95.10;;;;;;5149724;27;20528;-68
2023/06/18 09:21:03;;;;;;;10.20;6.90;;;28.50;94.60;;;;;;5131171;27;21025;-68
2023/06/18 09:23:29;;;;;;;6.77;6.23;;;28.70;94.80;;;;;;5149810;27;20180;-68
2023/06/18 09:25:56;;;;;;;7.77;7.07;;;28.90;93.70;;;;;;5149579;27;20464;-68
2023/06/18 09:28:24;;;;;;;8.23;7.20;;;29.00;92.70;;;;;;5130713;27;20469;-67
2023/06/18 09:31:01;;;;;;;7.20;6.60;;;29.20;93.50;;;;;;5149759;27;20414;-68
2023/06/18 09:33:36;;;;;;;15.27;7.33;;;29.30;93.00;;;;;;5149511;27;20413;-68
2023/06/18 09:36:05;;;;;;;7.50;6.73;;;29.60;92.30;;;;;;5149545;27;20409;-67
2023/06/18 09:38:35;;;;;;;7.67;6.97;;;29.70;92.00;;;;;;5149352;27;20441;-67
2023/06/18 09:41:01;;;;;;;11.10;7.00;;;29.90;92.50;;;;;;5149606;27;20418;-67
2023/06/18 09:43:38;;;;;;;11.30;7.87;;;30.00;92.20;;;;;;5149140;27;20466;-67
2023/06/18 09:46:07;;;;;;;7.07;6.40;;;29.90;93.00;;;;;;5149258;27;20417;-66
2023/06/18 09:48:38;;;;;;;8.50;7.33;;;29.80;92.20;;;;;;5149249;27;20457;-67
2023/06/18 09:51:05;;;;;;;7.87;7.07;;;29.70;91.90;;;;;;5148998;27;20441;-68
2023/06/18 09:53:32;;;;;;;13.17;7.30;;;29.80;91.20;;;;;;5149212;27;20421;-66
2023/06/18 09:56:14;;;;;;;8.87;7.20;;;29.90;90.90;;;;;;5149149;27;20431;-67
2023/06/18 09:58:46;;;;;;;8.03;7.30;;;30.20;91.30;;;;;;5149193;27;20444;-67
2023/06/18 10:01:13;;;;;;;7.00;6.40;;;30.30;90.50;;;;;;5149544;27;20786;-67
2023/06/18 10:03:39;;;;;;;10.80;7.50;;;30.50;90.40;;;;;;5149567;27;20414;-68
2023/06/18 10:06:13;;;;;;;7.97;6.87;;;30.80;90.20;;;;;;5149632;27;21019;-68
2023/06/18 10:08:42;;;;;;;6.83;6.30;;;30.80;90.00;;;;;;5149510;27;20962;-68
2023/06/18 10:11:09;;;;;;;7.57;6.80;;;31.00;90.00;;;;;;5149660;27;20474;-68
2023/06/18 10:13:48;;;;;;;8.03;6.80;;;31.10;88.70;;;;;;5149444;27;20481;-68
2023/06/18 10:16:17;;;;;;;8.97;6.10;;;31.50;89.20;;;;;;5130791;27;20425;-68
2023/06/18 10:18:52;;;;;;;10.80;6.97;;;31.70;88.50;;;;;;5149323;27;20591;-68
2023/06/18 10:21:20;;;;;;;13.70;6.40;;;31.90;87.70;;;;;;5149132;27;20409;-67
2023/06/18 10:23:49;;;;;;;11.33;7.03;;;32.00;86.30;;;;;;5149418;27;20422;-67
2023/06/18 10:26:15;;;;;;;8.63;6.73;;;32.00;84.70;;;;;;5149048;27;20520;-67
2023/06/18 10:28:41;;;;;;;9.47;6.70;;;31.80;85.10;;;;;;5148684;27;20465;-68
2023/06/18 10:31:07;;;;;;;7.97;7.17;;;31.80;87.00;;;;;;5149168;27;20428;-68
2023/06/18 10:33:34;;;;;;;81.57;9.90;;;31.90;85.00;;;;;;5148590;27;20657;-67
2023/06/18 10:36:01;;;;;;;8.87;6.27;;;32.10;85.40;;;;;;5148861;27;20178;-68
2023/06/18 10:38:27;;;;;;;7.53;6.87;;;32.30;83.80;;;;;;5148916;27;20461;-68
2023/06/18 10:41:08;;;;;;;29.67;6.80;;;32.30;84.10;;;;;;5148964;27;20990;-70
2023/06/18 10:43:38;;;;;;;10.40;7.20;;;32.30;84.50;;;;;;5148653;27;20410;-67
2023/06/18 10:46:14;;;;;;;9.30;6.70;;;32.00;82.80;;;;;;5148460;27;20787;-69
2023/06/18 10:48:40;;;;;;;9.13;6.37;;;31.80;84.60;;;;;;5147930;27;20552;-67
2023/06/18 10:51:17;;;;;;;10.70;7.37;;;31.70;82.70;;;;;;5148480;27;20865;-68
2023/06/18 10:53:46;;;;;;;10.27;7.13;;;31.60;83.90;;;;;;5148221;27;20221;-70
2023/06/18 10:56:16;;;;;;;14.37;7.10;;;31.40;82.40;;;;;;5130011;27;20414;-74
2023/06/18 10:58:42;;;;;;;7.13;6.33;;;31.30;81.80;;;;;;5148260;27;20537;-73
2023/06/18 11:01:24;;;;;;;7.30;6.60;;;31.30;81.80;;;;;;5129623;27;20520;-66
2023/06/18 11:04:05;;;;;;;8.50;7.00;;;31.40;82.60;;;;;;5148408;27;21035;-74
2023/06/18 11:06:30;;;;;;;7.50;6.87;;;31.30;81.90;;;;;;5148000;27;20506;-70
2023/06/18 11:08:56;;;;;;;6.23;5.73;;;31.40;81.60;;;;;;5148015;27;20583;-74
2023/06/18 11:11:24;;;;;;;6.43;5.83;;;31.40;81.70;;;;;;5148159;27;20180;-72
2023/06/18 11:13:53;;;;;;;6.33;5.83;;;31.30;82.60;;;;;;5148116;27;20428;-71
2023/06/18 11:16:20;;;;;;;7.83;6.70;;;31.40;80.70;;;;;;5148215;27;20445;-73
2023/06/18 11:18:46;;;;;;;7.10;6.40;;;31.50;81.80;;;;;;5148174;27;20434;-69
2023/06/18 11:21:19;;;;;;;7.90;6.67;;;31.40;81.60;;;;;;5147938;27;20427;-72
2023/06/18 11:23:46;;;;;;;7.57;6.87;;;31.60;81.10;;;;;;5129624;27;20513;-71
2023/06/18 11:26:14;;;;;;;6.77;6.03;;;31.60;80.70;;;;;;5148243;27;20501;-71
2023/06/18 11:28:40;;;;;;;7.43;6.63;;;31.40;80.50;;;;;;5148613;27;20464;-71
2023/06/18 11:31:06;;;;;;;8.00;6.10;;;31.40;79.00;;;;;;5148641;27;20452;-71
2023/06/18 11:33:31;;;;;;;6.80;6.20;;;31.40;79.70;;;;;;5113055;27;20418;-70
2023/06/18 11:36:20;;;;;;;11.53;6.70;;;31.40;79.20;;;;;;5148744;27;20205;-71
2023/06/18 11:38:47;;;;;;;6.73;6.03;;;31.50;78.60;;;;;;5134641;27;20242;-71
2023/06/18 11:41:19;;;;;;;7.70;6.50;;;31.60;79.60;;;;;;5132722;27;20458;-71
2023/06/18 11:43:50;;;;;;;11.00;6.10;;;31.60;80.80;;;;;;5133385;27;20429;-71
2023/06/18 11:46:29;;;;;;;7.30;6.60;;;31.60;79.10;;;;;;5151892;27;20418;-71
2023/06/18 11:48:55;;;;;;;8.20;6.43;;;31.60;77.80;;;;;;5151713;27;20461;-70
2023/06/18 11:51:24;;;;;;;9.73;6.83;;;31.60;78.60;;;;;;5133050;27;20837;-71
2023/06/18 11:53:52;;;;;;;7.00;6.40;;;31.30;77.90;;;;;;5151208;27;20192;-71
2023/06/18 11:56:22;;;;;;;7.43;6.53;;;31.30;80.10;;;;;;5133133;27;20964;-70
2023/06/18 11:58:48;;;;;;;7.37;6.63;;;31.40;80.40;;;;;;5151569;27;20919;-70
2023/06/18 12:01:16;;;;;;;6.17;5.57;;;31.60;80.70;;;;;;5132702;27;20436;-69
2023/06/18 12:03:42;;;;;;;9.07;5.97;;;31.70;79.00;;;;;;5151063;27;20276;-69
2023/06/18 12:06:15;;;;;;;6.43;5.70;;;31.60;79.90;;;;;;5151369;27;20501;-69
2023/06/18 12:08:46;;;;;;;7.50;6.30;;;31.70;79.60;;;;;;5150912;27;20212;-69
2023/06/18 12:11:30;;;;;;;6.30;5.70;;;31.50;79.20;;;;;;5151156;27;20430;-69
2023/06/18 12:14:02;;;;;;;7.10;6.50;;;31.60;79.60;;;;;;5151014;27;20418;-69
2023/06/18 12:16:29;;;;;;;6.57;5.87;;;31.70;79.20;;;;;;5151123;27;20922;-69
2023/06/18 12:19:01;;;;;;;6.53;5.93;;;31.90;78.60;;;;;;5150803;27;20437;-69
2023/06/18 12:21:27;;;;;;;6.40;5.83;;;31.90;79.10;;;;;;5151004;27;20440;-69
2023/06/18 12:23:53;;;;;;;6.93;6.20;;;31.90;78.60;;;;;;5150820;27;20425;-69
2023/06/18 12:26:19;;;;;;;6.83;6.13;;;31.80;78.10;;;;;;5150613;27;20449;-68
2023/06/18 12:28:45;;;;;;;6.80;6.10;;;31.60;78.50;;;;;;5150531;27;20211;-68
2023/06/18 12:31:11;;;;;;;6.57;5.90;;;31.60;77.50;;;;;;5150592;27;20466;-68
2023/06/18 12:33:42;;;;;;;12.93;7.60;;;31.30;77.20;;;;;;5150635;27;20172;-68
2023/06/18 12:36:08;;;;;;;11.30;6.50;;;31.40;77.20;;;;;;5150697;27;20422;-69
2023/06/18 12:38:45;;;;;;;6.53;5.90;;;31.20;76.70;;;;;;5150461;27;21051;-68
2023/06/18 12:41:20;;;;;;;6.00;5.50;;;31.20;77.50;;;;;;5150634;27;20185;-69
2023/06/18 12:43:46;;;;;;;9.80;6.20;;;31.20;77.20;;;;;;5150482;27;20402;-68